sensor_id;sensor_type;location;lat;lon;timestamp;P1;durP1;ratioP1;P2;durP2;ratioP2
59418;SDS011;45224;50.904;6.038;2023-06-14T12:33:58;5.35;;;2.65;;
59418;SDS011;45224;50.904;6.038;2023-06-14T12:35:29;6.68;;;2.60;;
59418;SDS011;45224;50.904;6.038;2023-06-14T12:37:00;7.38;;;2.70;;
59418;SDS011;45224;50.904;6.038;2023-06-14T12:38:30;11.60;;;3.10;;
59418;SDS011;45224;50.904;6.038;2023-06-14T12:40:01;4.20;;;2.88;;
59418;SDS011;45224;50.904;6.038;2023-06-14T12:41:31;8.57;;;3.00;;
59418;SDS011;45224;50.904;6.038;2023-06-14T12:43:03;7.32;;;2.63;;
59418;SDS011;45224;50.904;6.038;2023-06-14T12:44:34;8.32;;;2.78;;
59418;SDS011;45224;50.904;6.038;2023-06-14T12:46:10;4.88;;;2.83;;
59418;SDS011;45224;50.904;6.038;2023-06-14T12:47:40;5.50;;;2.75;;
59418;SDS011;45224;50.904;6.038;2023-06-14T12:49:12;4.35;;;2.78;;
59418;SDS011;45224;50.904;6.038;2023-06-14T12:50:43;10.35;;;3.20;;
59418;SDS011;45224;50.904;6.038;2023-06-14T12:52:13;7.15;;;2.30;;
59418;SDS011;45224;50.904;6.038;2023-06-14T12:53:44;3.45;;;2.50;;
59418;SDS011;45224;50.904;6.038;2023-06-14T12:55:15;8.60;;;2.55;;
59418;SDS011;45224;50.904;6.038;2023-06-14T12:56:46;3.60;;;2.50;;
59418;SDS011;45224;50.904;6.038;2023-06-14T12:58:16;6.82;;;2.60;;
59418;SDS011;45224;50.904;6.038;2023-06-14T12:59:49;5.00;;;2.30;;
59418;SDS011;45224;50.904;6.038;2023-06-14T13:01:20;7.80;;;2.65;;
59418;SDS011;45224;50.904;6.038;2023-06-14T13:02:50;7.82;;;2.33;;
59418;SDS011;45224;50.904;6.038;2023-06-14T13:04:21;5.97;;;2.40;;
59418;SDS011;45224;50.904;6.038;2023-06-14T13:05:52;8.65;;;2.58;;
59418;SDS011;45224;50.904;6.038;2023-06-14T13:07:22;6.25;;;2.25;;
59418;SDS011;45224;50.904;6.038;2023-06-14T13:08:53;7.07;;;2.90;;
59418;SDS011;45224;50.904;6.038;2023-06-14T13:10:25;8.25;;;2.78;;
59418;SDS011;45224;50.904;6.038;2023-06-14T13:11:56;6.95;;;2.72;;
59418;SDS011;45224;50.904;6.038;2023-06-14T13:13:26;4.88;;;2.55;;
59418;SDS011;45224;50.904;6.038;2023-06-14T13:14:57;6.72;;;2.45;;
59418;SDS011;45224;50.904;6.038;2023-06-14T13:16:27;5.00;;;2.45;;
59418;SDS011;45224;50.904;6.038;2023-06-14T13:17:58;11.63;;;2.70;;
59418;SDS011;45224;50.904;6.038;2023-06-14T13:19:28;6.78;;;2.70;;
59418;SDS011;45224;50.904;6.038;2023-06-14T13:20:59;7.95;;;4.15;;
59418;SDS011;45224;50.904;6.038;2023-06-14T13:22:29;8.00;;;2.80;;
59418;SDS011;45224;50.904;6.038;2023-06-14T13:24:00;5.78;;;2.78;;
59418;SDS011;45224;50.904;6.038;2023-06-14T13:25:31;6.63;;;2.70;;
59418;SDS011;45224;50.904;6.038;2023-06-14T13:27:02;7.53;;;2.78;;
59418;SDS011;45224;50.904;6.038;2023-06-14T13:28:32;6.72;;;2.50;;
59418;SDS011;45224;50.904;6.038;2023-06-14T13:30:05;7.35;;;2.70;;
59418;SDS011;45224;50.904;6.038;2023-06-14T13:31:36;4.82;;;2.75;;
59418;SDS011;45224;50.904;6.038;2023-06-14T13:33:07;4.43;;;2.38;;
59418;SDS011;45224;50.904;6.038;2023-06-14T13:34:37;7.55;;;2.60;;
59418;SDS011;45224;50.904;6.038;2023-06-14T13:36:08;7.32;;;2.60;;
59418;SDS011;45224;50.904;6.038;2023-06-14T13:37:38;6.63;;;2.90;;
59418;SDS011;45224;50.904;6.038;2023-06-14T13:39:09;5.68;;;2.78;;
59418;SDS011;45224;50.904;6.038;2023-06-14T13:40:40;9.88;;;2.90;;
59418;SDS011;45224;50.904;6.038;2023-06-14T13:42:11;6.30;;;2.90;;
59418;SDS011;45224;50.904;6.038;2023-06-14T13:43:42;9.38;;;2.63;;
59418;SDS011;45224;50.904;6.038;2023-06-14T13:45:13;6.20;;;2.78;;
59418;SDS011;45224;50.904;6.038;2023-06-14T13:46:44;6.82;;;2.70;;
59418;SDS011;45224;50.904;6.038;2023-06-14T13:48:15;11.32;;;2.70;;
59418;SDS011;45224;50.904;6.038;2023-06-14T13:49:45;4.35;;;2.50;;
59418;SDS011;45224;50.904;6.038;2023-06-14T13:51:15;4.22;;;2.72;;
59418;SDS011;45224;50.904;6.038;2023-06-14T13:52:49;7.18;;;2.63;;
59418;SDS011;45224;50.904;6.038;2023-06-14T13:54:20;6.97;;;2.83;;
59418;SDS011;45224;50.904;6.038;2023-06-14T13:55:51;6.32;;;3.03;;
59418;SDS011;45224;50.904;6.038;2023-06-14T13:57:22;5.93;;;2.65;;
59418;SDS011;45224;50.904;6.038;2023-06-14T13:58:53;6.45;;;3.00;;
59418;SDS011;45224;50.904;6.038;2023-06-14T14:00:24;7.50;;;3.00;;
59418;SDS011;45224;50.904;6.038;2023-06-14T14:01:55;7.57;;;3.17;;
59418;SDS011;45224;50.904;6.038;2023-06-14T14:03:25;7.50;;;3.17;;
59418;SDS011;45224;50.904;6.038;2023-06-14T14:04:56;6.63;;;3.03;;
59418;SDS011;45224;50.904;6.038;2023-06-14T14:06:27;5.70;;;3.00;;
59418;SDS011;45224;50.904;6.038;2023-06-14T14:07:58;7.45;;;2.88;;
59418;SDS011;45224;50.904;6.038;2023-06-14T14:09:28;8.98;;;3.20;;
59418;SDS011;45224;50.904;6.038;2023-06-14T14:10:59;11.57;;;3.50;;
59418;SDS011;45224;50.904;6.038;2023-06-14T14:12:29;5.85;;;3.30;;
59418;SDS011;45224;50.904;6.038;2023-06-14T14:14:00;6.43;;;2.92;;
59418;SDS011;45224;50.904;6.038;2023-06-14T14:15:31;6.13;;;3.13;;
59418;SDS011;45224;50.904;6.038;2023-06-14T14:17:04;6.28;;;3.38;;
59418;SDS011;45224;50.904;6.038;2023-06-14T14:18:35;12.32;;;3.45;;
59418;SDS011;45224;50.904;6.038;2023-06-14T14:20:07;6.30;;;3.15;;
59418;SDS011;45224;50.904;6.038;2023-06-14T14:21:38;5.07;;;3.30;;
59418;SDS011;45224;50.904;6.038;2023-06-14T14:23:08;10.50;;;3.25;;
59418;SDS011;45224;50.904;6.038;2023-06-14T14:24:39;9.10;;;3.85;;
59418;SDS011;45224;50.904;6.038;2023-06-14T14:26:09;5.80;;;3.17;;
59418;SDS011;45224;50.904;6.038;2023-06-14T14:27:40;10.30;;;3.80;;
59418;SDS011;45224;50.904;6.038;2023-06-14T14:29:10;5.45;;;3.08;;
59418;SDS011;45224;50.904;6.038;2023-06-14T14:30:42;7.82;;;3.28;;
59418;SDS011;45224;50.904;6.038;2023-06-14T14:32:12;9.18;;;3.50;;
59418;SDS011;45224;50.904;6.038;2023-06-14T14:33:44;8.75;;;3.40;;
59418;SDS011;45224;50.904;6.038;2023-06-14T14:35:16;8.93;;;5.22;;
59418;SDS011;45224;50.904;6.038;2023-06-14T14:36:47;6.10;;;4.50;;
59418;SDS011;45224;50.904;6.038;2023-06-14T14:38:18;7.32;;;3.88;;
59418;SDS011;45224;50.904;6.038;2023-06-14T14:39:48;8.80;;;3.38;;
59418;SDS011;45224;50.904;6.038;2023-06-14T14:41:19;10.00;;;3.30;;
59418;SDS011;45224;50.904;6.038;2023-06-14T14:44:20;5.77;;;3.53;;
59418;SDS011;45224;50.904;6.038;2023-06-14T14:45:50;7.43;;;3.35;;
59418;SDS011;45224;50.904;6.038;2023-06-14T14:47:21;8.50;;;3.20;;
59418;SDS011;45224;50.904;6.038;2023-06-14T14:50:22;8.03;;;3.60;;
59418;SDS011;45224;50.904;6.038;2023-06-14T14:51:53;10.73;;;3.42;;
59418;SDS011;45224;50.904;6.038;2023-06-14T14:53:23;5.85;;;3.33;;
59418;SDS011;45224;50.904;6.038;2023-06-14T14:56:24;6.87;;;3.30;;
59418;SDS011;45224;50.904;6.038;2023-06-14T14:57:55;8.45;;;3.33;;
59418;SDS011;45224;50.904;6.038;2023-06-14T14:59:26;7.57;;;3.25;;
59418;SDS011;45224;50.904;6.038;2023-06-14T15:02:27;5.90;;;3.00;;
59418;SDS011;45224;50.904;6.038;2023-06-14T15:03:58;7.05;;;2.90;;
59418;SDS011;45224;50.904;6.038;2023-06-14T15:06:59;11.03;;;3.70;;
59418;SDS011;45224;50.904;6.038;2023-06-14T15:10:00;8.20;;;3.90;;
59418;SDS011;45224;50.904;6.038;2023-06-14T15:11:31;12.85;;;4.78;;
59418;SDS011;45224;50.904;6.038;2023-06-14T15:14:32;9.77;;;3.17;;
59418;SDS011;45224;50.904;6.038;2023-06-14T15:17:32;5.03;;;2.83;;
59418;SDS011;45224;50.904;6.038;2023-06-14T15:20:33;6.43;;;3.40;;
59418;SDS011;45224;50.904;6.038;2023-06-14T15:23:34;6.77;;;2.93;;
59418;SDS011;45224;50.904;6.038;2023-06-14T15:26:35;5.20;;;3.10;;
59418;SDS011;45224;50.904;6.038;2023-06-14T15:28:06;8.27;;;2.95;;
59418;SDS011;45224;50.904;6.038;2023-06-14T15:29:36;7.93;;;3.03;;
59418;SDS011;45224;50.904;6.038;2023-06-14T15:32:37;8.13;;;2.87;;
59418;SDS011;45224;50.904;6.038;2023-06-14T15:35:38;9.90;;;3.10;;
59418;SDS011;45224;50.904;6.038;2023-06-14T15:38:39;9.70;;;3.07;;
59418;SDS011;45224;50.904;6.038;2023-06-14T15:40:10;6.18;;;3.03;;
59418;SDS011;45224;50.904;6.038;2023-06-14T15:43:11;8.37;;;3.00;;
59418;SDS011;45224;50.904;6.038;2023-06-14T15:46:12;7.63;;;2.83;;
59418;SDS011;45224;50.904;6.038;2023-06-14T15:49:13;6.83;;;3.50;;
59418;SDS011;45224;50.904;6.038;2023-06-14T15:52:14;10.17;;;4.87;;
59418;SDS011;45224;50.904;6.038;2023-06-14T15:55:15;10.13;;;3.87;;
59418;SDS011;45224;50.904;6.038;2023-06-14T15:58:16;9.37;;;3.90;;
59418;SDS011;45224;50.904;6.038;2023-06-14T16:01:17;13.07;;;3.83;;
59418;SDS011;45224;50.904;6.038;2023-06-14T16:04:19;9.05;;;3.33;;
59418;SDS011;45224;50.904;6.038;2023-06-14T16:07:20;9.83;;;3.27;;
59418;SDS011;45224;50.904;6.038;2023-06-14T16:10:22;6.65;;;3.05;;
59418;SDS011;45224;50.904;6.038;2023-06-14T16:11:54;13.00;;;4.88;;
59418;SDS011;45224;50.904;6.038;2023-06-14T16:14:55;3.93;;;2.97;;
59418;SDS011;45224;50.904;6.038;2023-06-14T16:17:56;7.90;;;2.60;;
59418;SDS011;45224;50.904;6.038;2023-06-14T16:20:57;9.47;;;2.77;;
59418;SDS011;45224;50.904;6.038;2023-06-14T16:23:57;6.17;;;3.00;;
59418;SDS011;45224;50.904;6.038;2023-06-14T16:26:59;13.07;;;3.33;;
59418;SDS011;45224;50.904;6.038;2023-06-14T16:30:00;7.38;;;2.63;;
59418;SDS011;45224;50.904;6.038;2023-06-14T16:33:01;4.83;;;2.60;;
59418;SDS011;45224;50.904;6.038;2023-06-14T16:36:04;6.40;;;2.80;;
59418;SDS011;45224;50.904;6.038;2023-06-14T16:39:05;6.90;;;2.60;;
59418;SDS011;45224;50.904;6.038;2023-06-14T16:42:06;7.27;;;3.00;;
59418;SDS011;45224;50.904;6.038;2023-06-14T16:45:07;4.33;;;2.63;;
59418;SDS011;45224;50.904;6.038;2023-06-14T16:48:08;3.90;;;3.20;;
59418;SDS011;45224;50.904;6.038;2023-06-14T16:51:09;6.47;;;2.83;;
59418;SDS011;45224;50.904;6.038;2023-06-14T16:54:10;4.93;;;3.10;;
59418;SDS011;45224;50.904;6.038;2023-06-14T16:55:41;6.85;;;2.97;;
59418;SDS011;45224;50.904;6.038;2023-06-14T16:58:42;4.30;;;2.90;;
59418;SDS011;45224;50.904;6.038;2023-06-14T17:01:43;5.65;;;3.00;;
59418;SDS011;45224;50.904;6.038;2023-06-14T17:03:13;5.60;;;3.03;;
59418;SDS011;45224;50.904;6.038;2023-06-14T17:06:14;11.20;;;3.10;;
59418;SDS011;45224;50.904;6.038;2023-06-14T17:09:15;7.77;;;3.27;;
59418;SDS011;45224;50.904;6.038;2023-06-14T17:10:46;11.05;;;2.92;;
59418;SDS011;45224;50.904;6.038;2023-06-14T17:13:47;10.32;;;3.60;;
59418;SDS011;45224;50.904;6.038;2023-06-14T17:15:18;4.35;;;3.25;;
59418;SDS011;45224;50.904;6.038;2023-06-14T17:16:48;4.72;;;3.30;;
59418;SDS011;45224;50.904;6.038;2023-06-14T17:18:19;7.18;;;3.00;;
59418;SDS011;45224;50.904;6.038;2023-06-14T17:21:22;7.38;;;3.50;;
59418;SDS011;45224;50.904;6.038;2023-06-14T17:22:52;8.48;;;3.95;;
59418;SDS011;45224;50.904;6.038;2023-06-14T17:25:53;7.05;;;3.08;;
59418;SDS011;45224;50.904;6.038;2023-06-14T17:28:54;5.67;;;3.00;;
59418;SDS011;45224;50.904;6.038;2023-06-14T17:30:25;9.00;;;3.47;;
59418;SDS011;45224;50.904;6.038;2023-06-14T17:33:26;10.38;;;3.65;;
59418;SDS011;45224;50.904;6.038;2023-06-14T17:34:57;7.43;;;3.40;;
59418;SDS011;45224;50.904;6.038;2023-06-14T17:36:27;5.22;;;3.45;;
59418;SDS011;45224;50.904;6.038;2023-06-14T17:37:57;7.10;;;3.45;;
59418;SDS011;45224;50.904;6.038;2023-06-14T17:39:28;9.25;;;3.42;;
59418;SDS011;45224;50.904;6.038;2023-06-14T17:40:58;15.25;;;3.95;;
59418;SDS011;45224;50.904;6.038;2023-06-14T17:42:30;8.07;;;3.70;;
59418;SDS011;45224;50.904;6.038;2023-06-14T17:44:01;8.82;;;3.30;;
59418;SDS011;45224;50.904;6.038;2023-06-14T17:45:31;8.80;;;3.78;;
59418;SDS011;45224;50.904;6.038;2023-06-14T17:47:02;8.45;;;3.60;;
59418;SDS011;45224;50.904;6.038;2023-06-14T17:48:33;5.45;;;3.25;;
59418;SDS011;45224;50.904;6.038;2023-06-14T17:50:03;11.73;;;3.60;;
59418;SDS011;45224;50.904;6.038;2023-06-14T17:51:35;4.95;;;3.70;;
59418;SDS011;45224;50.904;6.038;2023-06-14T17:53:06;7.03;;;3.70;;
59418;SDS011;45224;50.904;6.038;2023-06-14T17:56:07;8.23;;;3.77;;
59418;SDS011;45224;50.904;6.038;2023-06-14T17:57:37;8.82;;;3.58;;
59418;SDS011;45224;50.904;6.038;2023-06-14T17:59:08;6.03;;;3.47;;
59418;SDS011;45224;50.904;6.038;2023-06-14T18:00:39;11.15;;;3.65;;
59418;SDS011;45224;50.904;6.038;2023-06-14T18:02:09;6.55;;;3.85;;
59418;SDS011;45224;50.904;6.038;2023-06-14T18:03:40;7.78;;;3.67;;
59418;SDS011;45224;50.904;6.038;2023-06-14T18:06:40;10.10;;;3.92;;
59418;SDS011;45224;50.904;6.038;2023-06-14T18:08:11;8.88;;;3.70;;
59418;SDS011;45224;50.904;6.038;2023-06-14T18:09:41;7.85;;;3.33;;
59418;SDS011;45224;50.904;6.038;2023-06-14T18:11:12;7.43;;;3.75;;
59418;SDS011;45224;50.904;6.038;2023-06-14T18:12:42;8.00;;;3.70;;
59418;SDS011;45224;50.904;6.038;2023-06-14T18:14:13;11.23;;;3.83;;
59418;SDS011;45224;50.904;6.038;2023-06-14T18:15:43;10.27;;;4.22;;
59418;SDS011;45224;50.904;6.038;2023-06-14T18:17:14;5.22;;;3.47;;
59418;SDS011;45224;50.904;6.038;2023-06-14T18:18:44;9.07;;;3.50;;
59418;SDS011;45224;50.904;6.038;2023-06-14T18:20:16;8.40;;;3.90;;
59418;SDS011;45224;50.904;6.038;2023-06-14T18:21:47;18.10;;;4.43;;
59418;SDS011;45224;50.904;6.038;2023-06-14T18:23:17;18.65;;;5.20;;
59418;SDS011;45224;50.904;6.038;2023-06-14T18:24:48;11.00;;;4.07;;
59418;SDS011;45224;50.904;6.038;2023-06-14T18:26:19;5.65;;;3.50;;
59418;SDS011;45224;50.904;6.038;2023-06-14T18:27:56;6.95;;;3.45;;
59418;SDS011;45224;50.904;6.038;2023-06-14T18:29:26;7.63;;;3.90;;
59418;SDS011;45224;50.904;6.038;2023-06-14T18:30:57;7.47;;;3.70;;
59418;SDS011;45224;50.904;6.038;2023-06-14T18:32:28;12.88;;;3.55;;
59418;SDS011;45224;50.904;6.038;2023-06-14T18:34:01;9.93;;;3.63;;
59418;SDS011;45224;50.904;6.038;2023-06-14T18:35:32;8.48;;;4.03;;
59418;SDS011;45224;50.904;6.038;2023-06-14T18:37:03;5.55;;;3.80;;
59418;SDS011;45224;50.904;6.038;2023-06-14T18:38:34;5.70;;;3.97;;
59418;SDS011;45224;50.904;6.038;2023-06-14T18:40:04;9.88;;;3.70;;
59418;SDS011;45224;50.904;6.038;2023-06-14T18:41:35;5.22;;;3.55;;
59418;SDS011;45224;50.904;6.038;2023-06-14T18:43:06;10.65;;;3.90;;
59418;SDS011;45224;50.904;6.038;2023-06-14T18:44:36;5.30;;;3.60;;
59418;SDS011;45224;50.904;6.038;2023-06-14T18:46:08;6.82;;;3.83;;
59418;SDS011;45224;50.904;6.038;2023-06-14T18:47:39;5.13;;;3.50;;
59418;SDS011;45224;50.904;6.038;2023-06-14T18:49:10;9.43;;;4.07;;
59418;SDS011;45224;50.904;6.038;2023-06-14T18:50:40;4.97;;;3.63;;
59418;SDS011;45224;50.904;6.038;2023-06-14T18:52:11;15.48;;;4.03;;
59418;SDS011;45224;50.904;6.038;2023-06-14T18:53:42;7.90;;;4.30;;
59418;SDS011;45224;50.904;6.038;2023-06-14T18:55:13;4.38;;;3.40;;
59418;SDS011;45224;50.904;6.038;2023-06-14T18:56:44;5.05;;;3.67;;
59418;SDS011;45224;50.904;6.038;2023-06-14T18:58:15;5.82;;;3.85;;
59418;SDS011;45224;50.904;6.038;2023-06-14T18:59:46;4.53;;;3.53;;
59418;SDS011;45224;50.904;6.038;2023-06-14T19:01:17;7.20;;;4.05;;
59418;SDS011;45224;50.904;6.038;2023-06-14T19:02:47;9.45;;;3.60;;
59418;SDS011;45224;50.904;6.038;2023-06-14T19:04:18;7.97;;;3.60;;
59418;SDS011;45224;50.904;6.038;2023-06-14T19:05:48;6.20;;;3.70;;
59418;SDS011;45224;50.904;6.038;2023-06-14T19:07:21;8.80;;;3.60;;
59418;SDS011;45224;50.904;6.038;2023-06-14T19:08:51;6.47;;;3.80;;
59418;SDS011;45224;50.904;6.038;2023-06-14T19:10:22;6.22;;;3.70;;
59418;SDS011;45224;50.904;6.038;2023-06-14T19:11:53;10.95;;;4.20;;
59418;SDS011;45224;50.904;6.038;2023-06-14T19:13:23;8.27;;;3.53;;
59418;SDS011;45224;50.904;6.038;2023-06-14T19:14:54;8.38;;;4.03;;
59418;SDS011;45224;50.904;6.038;2023-06-14T19:16:25;11.05;;;4.20;;
59418;SDS011;45224;50.904;6.038;2023-06-14T19:19:31;5.70;;;3.72;;
59418;SDS011;45224;50.904;6.038;2023-06-14T19:21:01;8.65;;;3.90;;
59418;SDS011;45224;50.904;6.038;2023-06-14T19:22:32;9.73;;;3.90;;
59418;SDS011;45224;50.904;6.038;2023-06-14T19:25:34;8.87;;;3.97;;
59418;SDS011;45224;50.904;6.038;2023-06-14T19:27:06;9.55;;;4.35;;
59418;SDS011;45224;50.904;6.038;2023-06-14T19:28:36;5.80;;;3.65;;
59418;SDS011;45224;50.904;6.038;2023-06-14T19:30:07;9.50;;;4.45;;
59418;SDS011;45224;50.904;6.038;2023-06-14T19:31:38;8.50;;;4.90;;
59418;SDS011;45224;50.904;6.038;2023-06-14T19:33:08;16.55;;;9.43;;
59418;SDS011;45224;50.904;6.038;2023-06-14T19:34:38;8.50;;;5.18;;
59418;SDS011;45224;50.904;6.038;2023-06-14T19:36:13;9.80;;;4.57;;
59418;SDS011;45224;50.904;6.038;2023-06-14T19:37:47;6.47;;;3.63;;
59418;SDS011;45224;50.904;6.038;2023-06-14T19:39:17;5.20;;;3.92;;
59418;SDS011;45224;50.904;6.038;2023-06-14T19:40:48;7.07;;;4.28;;
59418;SDS011;45224;50.904;6.038;2023-06-14T19:42:18;6.90;;;4.20;;
59418;SDS011;45224;50.904;6.038;2023-06-14T19:43:49;8.57;;;3.97;;
59418;SDS011;45224;50.904;6.038;2023-06-14T19:45:19;7.63;;;3.95;;
59418;SDS011;45224;50.904;6.038;2023-06-14T19:46:50;10.05;;;3.97;;
59418;SDS011;45224;50.904;6.038;2023-06-14T19:48:20;11.60;;;4.07;;
59418;SDS011;45224;50.904;6.038;2023-06-14T19:49:51;9.93;;;3.67;;
59418;SDS011;45224;50.904;6.038;2023-06-14T19:51:22;15.15;;;4.00;;
59418;SDS011;45224;50.904;6.038;2023-06-14T19:52:52;10.15;;;4.20;;
59418;SDS011;45224;50.904;6.038;2023-06-14T19:55:54;8.17;;;3.80;;
59418;SDS011;45224;50.904;6.038;2023-06-14T19:57:24;9.57;;;3.95;;
59418;SDS011;45224;50.904;6.038;2023-06-14T19:58:55;11.02;;;4.15;;
59418;SDS011;45224;50.904;6.038;2023-06-14T20:00:26;9.20;;;4.15;;
59418;SDS011;45224;50.904;6.038;2023-06-14T20:01:57;8.57;;;3.90;;
59418;SDS011;45224;50.904;6.038;2023-06-14T20:03:28;8.65;;;4.07;;
59418;SDS011;45224;50.904;6.038;2023-06-14T20:04:59;8.15;;;4.07;;
59418;SDS011;45224;50.904;6.038;2023-06-14T20:06:29;6.50;;;3.88;;
59418;SDS011;45224;50.904;6.038;2023-06-14T20:08:00;16.77;;;4.55;;
59418;SDS011;45224;50.904;6.038;2023-06-14T20:09:34;8.48;;;4.20;;
59418;SDS011;45224;50.904;6.038;2023-06-14T20:11:05;14.95;;;4.30;;
59418;SDS011;45224;50.904;6.038;2023-06-14T20:12:36;21.65;;;4.28;;
59418;SDS011;45224;50.904;6.038;2023-06-14T20:14:08;10.95;;;4.28;;
59418;SDS011;45224;50.904;6.038;2023-06-14T20:15:39;7.70;;;4.20;;
59418;SDS011;45224;50.904;6.038;2023-06-14T20:17:10;11.23;;;4.15;;
59418;SDS011;45224;50.904;6.038;2023-06-14T20:18:40;9.35;;;4.13;;
59418;SDS011;45224;50.904;6.038;2023-06-14T20:20:11;8.05;;;4.45;;
59418;SDS011;45224;50.904;6.038;2023-06-14T20:21:42;9.63;;;4.22;;
59418;SDS011;45224;50.904;6.038;2023-06-14T20:23:12;9.27;;;4.07;;
59418;SDS011;45224;50.904;6.038;2023-06-14T20:24:43;8.27;;;4.15;;
59418;SDS011;45224;50.904;6.038;2023-06-14T20:26:14;9.82;;;4.20;;
59418;SDS011;45224;50.904;6.038;2023-06-14T20:27:45;11.45;;;3.92;;
59418;SDS011;45224;50.904;6.038;2023-06-14T20:29:17;10.98;;;4.22;;
59418;SDS011;45224;50.904;6.038;2023-06-14T20:30:47;10.88;;;4.68;;
59418;SDS011;45224;50.904;6.038;2023-06-14T20:32:18;8.75;;;4.40;;
59418;SDS011;45224;50.904;6.038;2023-06-14T20:33:48;7.20;;;4.50;;
59418;SDS011;45224;50.904;6.038;2023-06-14T20:35:19;13.10;;;4.50;;
59418;SDS011;45224;50.904;6.038;2023-06-14T20:36:49;9.25;;;4.68;;
59418;SDS011;45224;50.904;6.038;2023-06-14T20:38:22;6.15;;;4.10;;
59418;SDS011;45224;50.904;6.038;2023-06-14T20:39:55;8.25;;;4.80;;
59418;SDS011;45224;50.904;6.038;2023-06-14T20:41:32;9.93;;;4.82;;
59418;SDS011;45224;50.904;6.038;2023-06-14T20:43:03;10.52;;;4.78;;
59418;SDS011;45224;50.904;6.038;2023-06-14T20:44:36;11.57;;;4.50;;
59418;SDS011;45224;50.904;6.038;2023-06-14T20:46:10;10.32;;;4.97;;
59418;SDS011;45224;50.904;6.038;2023-06-14T20:47:41;6.57;;;4.80;;
59418;SDS011;45224;50.904;6.038;2023-06-14T20:49:13;9.68;;;4.60;;
59418;SDS011;45224;50.904;6.038;2023-06-14T20:50:43;7.13;;;4.88;;
59418;SDS011;45224;50.904;6.038;2023-06-14T20:52:14;11.73;;;4.40;;
59418;SDS011;45224;50.904;6.038;2023-06-14T20:53:45;10.85;;;4.32;;
59418;SDS011;45224;50.904;6.038;2023-06-14T20:55:15;9.68;;;4.40;;
59418;SDS011;45224;50.904;6.038;2023-06-14T20:56:47;6.15;;;4.57;;
59418;SDS011;45224;50.904;6.038;2023-06-14T20:58:18;6.60;;;4.32;;
59418;SDS011;45224;50.904;6.038;2023-06-14T21:01:20;6.10;;;4.17;;
59418;SDS011;45224;50.904;6.038;2023-06-14T21:02:50;8.77;;;4.63;;
59418;SDS011;45224;50.904;6.038;2023-06-14T21:04:21;12.82;;;4.88;;
59418;SDS011;45224;50.904;6.038;2023-06-14T21:05:52;11.15;;;5.28;;
59418;SDS011;45224;50.904;6.038;2023-06-14T21:08:55;14.80;;;4.45;;
59418;SDS011;45224;50.904;6.038;2023-06-14T21:10:27;10.38;;;4.95;;
59418;SDS011;45224;50.904;6.038;2023-06-14T21:11:57;9.63;;;4.60;;
59418;SDS011;45224;50.904;6.038;2023-06-14T21:13:28;7.18;;;4.57;;
59418;SDS011;45224;50.904;6.038;2023-06-14T21:14:58;7.77;;;4.43;;
59418;SDS011;45224;50.904;6.038;2023-06-14T21:16:29;5.82;;;4.10;;
59418;SDS011;45224;50.904;6.038;2023-06-14T21:17:59;14.73;;;4.78;;
59418;SDS011;45224;50.904;6.038;2023-06-14T21:19:30;15.18;;;4.80;;
59418;SDS011;45224;50.904;6.038;2023-06-14T21:21:00;7.88;;;4.45;;
59418;SDS011;45224;50.904;6.038;2023-06-14T21:22:32;5.50;;;4.35;;
59418;SDS011;45224;50.904;6.038;2023-06-14T21:24:04;11.25;;;4.65;;
59418;SDS011;45224;50.904;6.038;2023-06-14T21:25:34;11.65;;;4.40;;
59418;SDS011;45224;50.904;6.038;2023-06-14T21:27:05;7.82;;;4.93;;
59418;SDS011;45224;50.904;6.038;2023-06-14T21:28:36;9.95;;;4.45;;
59418;SDS011;45224;50.904;6.038;2023-06-14T21:30:06;8.13;;;4.60;;
59418;SDS011;45224;50.904;6.038;2023-06-14T21:33:08;5.70;;;4.50;;
59418;SDS011;45224;50.904;6.038;2023-06-14T21:34:39;12.25;;;4.50;;
59418;SDS011;45224;50.904;6.038;2023-06-14T21:36:10;9.50;;;4.68;;
59418;SDS011;45224;50.904;6.038;2023-06-14T21:37:41;7.15;;;4.40;;
59418;SDS011;45224;50.904;6.038;2023-06-14T21:39:11;11.20;;;4.55;;
59418;SDS011;45224;50.904;6.038;2023-06-14T21:40:42;10.02;;;4.82;;
59418;SDS011;45224;50.904;6.038;2023-06-14T21:42:13;7.53;;;4.50;;
59418;SDS011;45224;50.904;6.038;2023-06-14T21:43:43;13.45;;;4.80;;
59418;SDS011;45224;50.904;6.038;2023-06-14T21:45:14;12.27;;;4.87;;
59418;SDS011;45224;50.904;6.038;2023-06-14T21:46:44;9.90;;;4.47;;
59418;SDS011;45224;50.904;6.038;2023-06-14T21:48:15;13.18;;;5.03;;
59418;SDS011;45224;50.904;6.038;2023-06-14T21:49:45;9.63;;;4.68;;
59418;SDS011;45224;50.904;6.038;2023-06-14T21:51:16;15.98;;;4.97;;
59418;SDS011;45224;50.904;6.038;2023-06-14T21:52:46;17.58;;;5.32;;
59418;SDS011;45224;50.904;6.038;2023-06-14T21:54:17;10.48;;;4.95;;
59418;SDS011;45224;50.904;6.038;2023-06-14T21:55:47;19.15;;;5.55;;
59418;SDS011;45224;50.904;6.038;2023-06-14T21:57:18;17.65;;;4.82;;
59418;SDS011;45224;50.904;6.038;2023-06-14T21:58:48;21.07;;;4.90;;
59418;SDS011;45224;50.904;6.038;2023-06-14T22:00:19;11.85;;;4.70;;
59418;SDS011;45224;50.904;6.038;2023-06-14T22:01:53;17.02;;;5.03;;
59418;SDS011;45224;50.904;6.038;2023-06-14T22:03:24;10.95;;;4.53;;
59418;SDS011;45224;50.904;6.038;2023-06-14T22:04:54;16.10;;;4.97;;
59418;SDS011;45224;50.904;6.038;2023-06-14T22:06:25;9.18;;;4.40;;
59418;SDS011;45224;50.904;6.038;2023-06-14T22:07:55;12.13;;;4.65;;
59418;SDS011;45224;50.904;6.038;2023-06-14T22:09:26;10.02;;;5.10;;
59418;SDS011;45224;50.904;6.038;2023-06-14T22:10:56;10.35;;;5.20;;
59418;SDS011;45224;50.904;6.038;2023-06-14T22:12:27;7.53;;;4.60;;
59418;SDS011;45224;50.904;6.038;2023-06-14T22:13:58;8.55;;;4.63;;
59418;SDS011;45224;50.904;6.038;2023-06-14T22:15:29;8.15;;;4.82;;
59418;SDS011;45224;50.904;6.038;2023-06-14T22:17:00;8.02;;;4.45;;
59418;SDS011;45224;50.904;6.038;2023-06-14T22:18:31;15.18;;;5.28;;
59418;SDS011;45224;50.904;6.038;2023-06-14T22:20:02;11.73;;;4.90;;
59418;SDS011;45224;50.904;6.038;2023-06-14T22:21:35;7.22;;;4.43;;
59418;SDS011;45224;50.904;6.038;2023-06-14T22:23:06;7.15;;;4.65;;
59418;SDS011;45224;50.904;6.038;2023-06-14T22:24:38;19.98;;;5.40;;
59418;SDS011;45224;50.904;6.038;2023-06-14T22:26:08;20.03;;;5.03;;
59418;SDS011;45224;50.904;6.038;2023-06-14T22:27:39;27.08;;;5.45;;
59418;SDS011;45224;50.904;6.038;2023-06-14T22:29:15;18.02;;;5.22;;
59418;SDS011;45224;50.904;6.038;2023-06-14T22:30:46;12.05;;;4.57;;
59418;SDS011;45224;50.904;6.038;2023-06-14T22:32:18;20.17;;;4.88;;
59418;SDS011;45224;50.904;6.038;2023-06-14T22:33:50;17.40;;;5.57;;
59418;SDS011;45224;50.904;6.038;2023-06-14T22:36:51;9.23;;;4.43;;
59418;SDS011;45224;50.904;6.038;2023-06-14T22:38:24;11.07;;;5.30;;
59418;SDS011;45224;50.904;6.038;2023-06-14T22:39:55;12.50;;;4.95;;
59418;SDS011;45224;50.904;6.038;2023-06-14T22:41:25;5.45;;;4.50;;
59418;SDS011;45224;50.904;6.038;2023-06-14T22:42:56;11.40;;;4.70;;
59418;SDS011;45224;50.904;6.038;2023-06-14T22:44:27;8.52;;;4.72;;
59418;SDS011;45224;50.904;6.038;2023-06-14T22:46:00;10.75;;;4.85;;
59418;SDS011;45224;50.904;6.038;2023-06-14T22:47:31;8.03;;;4.60;;
59418;SDS011;45224;50.904;6.038;2023-06-14T22:49:01;6.18;;;4.28;;
59418;SDS011;45224;50.904;6.038;2023-06-14T22:50:32;8.07;;;4.53;;
59418;SDS011;45224;50.904;6.038;2023-06-14T22:52:03;10.88;;;4.72;;
59418;SDS011;45224;50.904;6.038;2023-06-14T22:53:34;6.90;;;4.70;;
59418;SDS011;45224;50.904;6.038;2023-06-14T22:55:05;9.87;;;4.50;;
59418;SDS011;45224;50.904;6.038;2023-06-14T22:56:39;7.07;;;4.45;;
59418;SDS011;45224;50.904;6.038;2023-06-14T22:58:10;10.25;;;4.38;;
59418;SDS011;45224;50.904;6.038;2023-06-14T22:59:45;9.48;;;4.50;;
59418;SDS011;45224;50.904;6.038;2023-06-14T23:01:17;9.15;;;4.32;;
59418;SDS011;45224;50.904;6.038;2023-06-14T23:02:47;8.77;;;4.30;;